createdAt,value
2023-03-08T00:02:04.604Z,-1.19
2023-03-08T00:07:06.108Z,-1.57
2023-03-08T00:12:08.454Z,-1.69
2023-03-08T00:17:09.932Z,-1.75
2023-03-08T00:22:12.013Z,-2.09
2023-03-08T00:27:13.499Z,-2.27
2023-03-08T00:32:16.946Z,-2.40
2023-03-08T00:37:18.805Z,-2.35
2023-03-08T00:42:22.041Z,-2.33
2023-03-08T00:47:23.514Z,-2.59
2023-03-08T00:52:25.123Z,-2.84
2023-03-08T00:57:26.599Z,-3.04
2023-03-08T01:02:28.134Z,-2.35
2023-03-08T01:07:30.138Z,-1.57
2023-03-08T01:12:35.957Z,-1.21
2023-03-08T01:17:37.479Z,-1.07
2023-03-08T01:22:39.311Z,-0.98
2023-03-08T01:27:40.773Z,-0.92
2023-03-08T01:32:42.388Z,-0.86
2023-03-08T01:37:43.928Z,-0.78
2023-03-08T01:42:45.444Z,-0.73
2023-03-08T01:47:46.966Z,-0.84
2023-03-08T01:52:52.503Z,-0.90
2023-03-08T01:57:55.822Z,-0.97
2023-03-08T02:03:01.093Z,-0.91
2023-03-08T02:08:02.576Z,-0.86
2023-03-08T02:13:06.501Z,-0.74
2023-03-08T02:18:08.071Z,-1.05
2023-03-08T02:23:13.842Z,-1.50
2023-03-08T02:28:15.772Z,-1.98
2023-03-08T02:33:18.794Z,-2.00
2023-03-08T02:38:21.880Z,-1.97
2023-03-08T02:43:23.600Z,-2.08
2023-03-08T02:48:25.160Z,-2.72
2023-03-08T02:53:26.724Z,-3.18
2023-03-08T02:58:28.359Z,-2.67
2023-03-08T03:03:31.433Z,-1.86
2023-03-08T03:08:33.027Z,-1.53
2023-03-08T03:13:34.532Z,-1.32
2023-03-08T03:18:36.088Z,-1.18
2023-03-08T03:23:37.919Z,-1.11
2023-03-08T03:28:39.944Z,-1.05
2023-03-08T03:33:41.944Z,-1.00
2023-03-08T03:38:43.727Z,-0.99
2023-03-08T03:43:45.899Z,-0.95
2023-03-08T03:48:47.459Z,-0.93
2023-03-08T03:53:49.521Z,-1.18
2023-03-08T03:58:52.549Z,-1.40
2023-03-08T04:03:55.418Z,-1.84
2023-03-08T04:08:59.373Z,-2.01
2023-03-08T04:14:00.939Z,-2.23
2023-03-08T04:19:05.699Z,-2.61
2023-03-08T04:24:07.643Z,-3.09
2023-03-08T04:29:09.137Z,-3.38
2023-03-08T04:34:10.640Z,-3.07
2023-03-08T04:39:12.207Z,-2.33
2023-03-08T04:44:13.725Z,-1.93
2023-03-08T04:49:15.307Z,-1.73
2023-03-08T04:54:16.805Z,-1.68
2023-03-08T04:59:18.333Z,-1.68
2023-03-08T05:04:19.867Z,-1.68
2023-03-08T05:09:21.402Z,-1.63
2023-03-08T05:14:22.905Z,-1.52
2023-03-08T05:19:24.850Z,-1.42
2023-03-08T05:24:27.273Z,-1.37
2023-03-08T05:29:28.756Z,-1.69
2023-03-08T05:34:30.475Z,-2.03
2023-03-08T05:39:32.046Z,-2.30
2023-03-08T05:44:33.577Z,-2.56
2023-03-08T05:49:35.110Z,-2.88
2023-03-08T05:54:36.631Z,-3.27
2023-03-08T05:59:38.152Z,-3.74
2023-03-08T06:04:39.625Z,-4.61
2023-03-08T06:09:41.078Z,-3.89
2023-03-08T06:14:42.590Z,-2.65
2023-03-08T06:19:44.189Z,-2.18
2023-03-08T06:24:49.626Z,-1.90
2023-03-08T06:29:51.182Z,-1.69
2023-03-08T06:34:52.669Z,-1.66
2023-03-08T06:39:54.174Z,-1.64
2023-03-08T06:44:55.679Z,-1.50
2023-03-08T06:49:57.149Z,-1.36
2023-03-08T06:54:58.665Z,-1.20
2023-03-08T07:00:00.194Z,-1.41
2023-03-08T07:05:01.757Z,-1.70
2023-03-08T07:10:04.440Z,-1.86
2023-03-08T07:15:14.800Z,-2.06
2023-03-08T07:20:18.675Z,-1.94
2023-03-08T07:25:21.214Z,-1.96
2023-03-08T07:30:22.782Z,-2.20
2023-03-08T07:35:24.281Z,-2.38
2023-03-08T07:40:25.827Z,-2.50
2023-03-08T07:45:27.363Z,-2.56
2023-03-08T07:50:28.929Z,-1.32
2023-03-08T07:55:30.843Z,-0.28
2023-03-08T08:00:32.392Z,0.22
2023-03-08T08:05:36.049Z,0.54
2023-03-08T08:10:37.653Z,0.81
2023-03-08T08:15:39.288Z,1.09
2023-03-08T08:20:41.018Z,1.32
2023-03-08T08:25:43.724Z,1.44
2023-03-08T08:30:45.219Z,1.39
2023-03-08T08:35:46.803Z,1.39
2023-03-08T08:40:48.468Z,1.35
2023-03-08T08:45:55.065Z,1.38
2023-03-08T08:50:58.314Z,1.39
2023-03-08T08:55:59.900Z,1.38
2023-03-08T09:01:01.427Z,1.51
2023-03-08T09:06:03.018Z,1.72
2023-03-08T09:11:07.317Z,1.84
2023-03-08T09:16:23.518Z,1.89
2023-03-08T09:21:26.280Z,1.95
2023-03-08T09:26:32.425Z,2.05
2023-03-08T09:31:36.442Z,2.10
2023-03-08T09:36:39.660Z,1.75
2023-03-08T09:41:44.386Z,1.94
2023-03-08T09:47:01.172Z,2.12
2023-03-08T09:52:39.956Z,1.87
2023-03-08T09:57:52.432Z,1.91
2023-03-08T10:03:15.501Z,1.88
2023-03-08T10:08:21.983Z,1.76
2023-03-08T10:13:34.230Z,2.38
2023-03-08T10:18:49.149Z,3.02
2023-03-08T10:24:02.020Z,2.95
2023-03-08T10:29:03.824Z,2.69
2023-03-08T10:34:19.152Z,2.80
2023-03-08T10:39:22.578Z,2.75
2023-03-08T10:44:36.969Z,2.58
2023-03-08T10:49:38.549Z,2.61
2023-03-08T10:54:40.010Z,2.27
2023-03-08T10:59:49.793Z,2.65
2023-03-08T11:04:58.158Z,2.69
2023-03-08T11:10:21.141Z,2.46
2023-03-08T11:15:22.994Z,2.43
2023-03-08T11:20:44.541Z,2.48
2023-03-08T11:26:00.895Z,2.46
2023-03-08T11:31:33.180Z,2.46
2023-03-08T11:37:05.099Z,2.56
2023-03-08T11:42:22.199Z,2.74
2023-03-08T11:47:53.966Z,2.45
2023-03-08T11:53:09.332Z,2.67
2023-03-08T11:58:15.315Z,2.49
2023-03-08T12:03:20.626Z,2.53
2023-03-08T12:08:29.107Z,2.43
2023-03-08T12:13:44.772Z,2.36
2023-03-08T12:18:49.003Z,2.55
2023-03-08T12:24:20.719Z,2.55
2023-03-08T12:29:39.243Z,2.93
2023-03-08T12:34:43.795Z,2.84
2023-03-08T12:39:56.193Z,2.93
2023-03-08T12:45:24.800Z,2.84
2023-03-08T12:50:26.520Z,2.60
2023-03-08T12:55:33.205Z,2.68
2023-03-08T13:00:39.215Z,2.53
2023-03-08T13:05:45.589Z,2.36
2023-03-08T13:10:49.828Z,2.44
2023-03-08T13:15:51.355Z,2.41
2023-03-08T13:21:01.550Z,2.78
2023-03-08T13:26:23.611Z,2.82
2023-03-08T13:31:32.262Z,2.86
2023-03-08T13:36:34.330Z,2.60
2023-03-08T13:41:40.724Z,2.73
2023-03-08T13:46:43.443Z,2.62
2023-03-08T13:51:48.936Z,2.58
2023-03-08T13:56:53.630Z,2.61
2023-03-08T14:01:56.029Z,2.53
2023-03-08T14:06:59.550Z,2.47
2023-03-08T14:12:04.793Z,2.69
2023-03-08T14:17:06.865Z,2.82
2023-03-08T14:22:21.193Z,2.41
2023-03-08T14:27:42.477Z,2.36
2023-03-08T14:33:01.294Z,2.49
2023-03-08T14:38:03.943Z,2.59
2023-03-08T14:43:06.923Z,2.72
2023-03-08T14:48:23.690Z,2.53
2023-03-08T14:53:25.171Z,2.50
2023-03-08T14:58:38.033Z,2.60
2023-03-08T15:03:39.518Z,2.84
2023-03-08T15:08:41.169Z,2.97
2023-03-08T15:13:42.774Z,2.74
2023-03-08T15:18:44.390Z,2.47
2023-03-08T15:23:47.674Z,2.16
2023-03-08T15:28:49.275Z,2.42
2023-03-08T15:33:50.821Z,2.37
2023-03-08T15:38:52.414Z,2.29
2023-03-08T15:43:54.944Z,2.41
2023-03-08T15:48:56.448Z,2.51
2023-03-08T15:53:58.215Z,2.51
2023-03-08T15:58:59.792Z,2.48
2023-03-08T16:04:01.537Z,2.34
2023-03-08T16:09:03.066Z,2.19
2023-03-08T16:14:04.570Z,2.15
2023-03-08T16:19:06.071Z,2.22
2023-03-08T16:24:07.618Z,2.24
2023-03-08T16:29:09.263Z,2.10
2023-03-08T16:34:11.726Z,1.99
2023-03-08T16:39:13.319Z,2.13
2023-03-08T16:44:21.767Z,2.15
2023-03-08T16:49:28.187Z,2.20
2023-03-08T16:54:29.822Z,1.97
2023-03-08T16:59:32.003Z,2.06
2023-03-08T17:04:33.536Z,2.04
2023-03-08T17:09:36.298Z,1.95
2023-03-08T17:14:37.873Z,1.91
2023-03-08T17:19:41.061Z,1.93
2023-03-08T17:24:42.815Z,1.93
2023-03-08T17:29:44.350Z,1.87
2023-03-08T17:34:45.882Z,1.79
2023-03-08T17:39:47.405Z,1.99
2023-03-08T17:44:50.034Z,2.00
2023-03-08T17:49:51.547Z,1.90
2023-03-08T17:54:54.431Z,1.58
2023-03-08T18:00:20.268Z,1.59
2023-03-08T18:05:22.024Z,1.93
2023-03-08T18:10:23.607Z,2.17
2023-03-08T18:15:25.167Z,2.30
2023-03-08T18:20:26.697Z,2.01
2023-03-08T18:25:28.228Z,1.79
2023-03-08T18:30:29.708Z,1.88
2023-03-08T18:35:31.417Z,1.75
2023-03-08T18:40:33.023Z,1.82
2023-03-08T18:45:34.497Z,1.79
2023-03-08T18:50:37.032Z,1.57
2023-03-08T18:55:39.341Z,1.19
2023-03-08T19:00:40.921Z,1.27
2023-03-08T19:05:42.825Z,1.36
2023-03-08T19:10:44.455Z,1.46
2023-03-08T19:15:45.930Z,1.46
2023-03-08T19:20:47.416Z,1.26
2023-03-08T19:26:07.329Z,1.29
2023-03-08T19:31:16.290Z,1.30
2023-03-08T19:36:17.809Z,1.41
2023-03-08T19:41:19.301Z,1.47
2023-03-08T19:46:20.977Z,1.48
2023-03-08T19:51:22.453Z,1.44
2023-03-08T19:56:25.234Z,1.33
2023-03-08T20:01:27.557Z,1.40
2023-03-08T20:06:32.030Z,1.43
2023-03-08T20:11:33.868Z,1.40
2023-03-08T20:16:35.866Z,1.27
2023-03-08T20:21:37.838Z,1.34
2023-03-08T20:26:41.875Z,1.38
2023-03-08T20:31:45.015Z,1.47
2023-03-08T20:36:47.453Z,1.52
2023-03-08T20:41:48.999Z,1.41
2023-03-08T20:46:50.461Z,1.42
2023-03-08T20:51:51.975Z,1.40
2023-03-08T20:56:53.515Z,1.57
2023-03-08T21:01:55.680Z,1.53
2023-03-08T21:06:57.442Z,1.45
2023-03-08T21:11:58.962Z,1.41
2023-03-08T21:17:00.455Z,1.37
2023-03-08T21:22:03.457Z,1.38
2023-03-08T21:27:04.958Z,1.55
2023-03-08T21:32:06.502Z,1.52
2023-03-08T21:37:07.997Z,1.48
2023-03-08T21:42:10.549Z,1.22
2023-03-08T21:47:12.042Z,1.22
2023-03-08T21:52:13.588Z,1.34
2023-03-08T21:57:15.072Z,1.15
2023-03-08T22:02:16.570Z,0.74
2023-03-08T22:07:18.051Z,0.44
2023-03-08T22:12:19.920Z,0.30
2023-03-08T22:17:21.439Z,0.38
2023-03-08T22:22:23.299Z,0.35
2023-03-08T22:27:27.952Z,0.40
2023-03-08T22:32:29.534Z,0.12
2023-03-08T22:37:31.076Z,0.14
2023-03-08T22:42:35.534Z,0.14
2023-03-08T22:47:37.025Z,0.37
2023-03-08T22:52:38.587Z,0.56
2023-03-08T22:57:40.115Z,0.41
2023-03-08T23:02:43.224Z,0.29
2023-03-08T23:07:47.221Z,0.21
2023-03-08T23:12:48.773Z,0.34
2023-03-08T23:17:50.292Z,0.34
2023-03-08T23:22:51.798Z,0.43
2023-03-08T23:27:54.828Z,0.31
2023-03-08T23:32:56.366Z,0.15
2023-03-08T23:37:57.899Z,0.22
2023-03-08T23:42:59.356Z,0.18
2023-03-08T23:48:03.141Z,0.30
2023-03-08T23:53:05.377Z,0.45
2023-03-08T23:58:07.349Z,0.22
